Albany, Oklahoma
Current Conditions -  °F | °C
As of 1:35 PM on Thursday 30 Oct 2014 (Local Time) from KDUA Reporting Station
Overcast Overcast  
Wind Chill: 22°   Ceiling: 7000
Heat Index: 22°   Visibility: 10mi
Dew Point: 10°   Wind: 6mph
Humidity: 46%   Direction: 220°SW
Pressure: 30.12"   Gusts: NA
Location:  33.88°N, 96.16°W
Report Text: KDUA 301835Z AUTO 22005KT 10SM BKN070 BKN080 OVC110 22/10 A3012 RMK AO2
Loading
Personal Weather Stations






























Interactive Weather Map
Tropical Storm Tracking
New forecast layout! Learn more

10-Day Weather Forecast

Advertisements
Track Severe Weather on mobile